sensor_id;sensor_type;location;lat;lon;timestamp;pressure;altitude;pressure_sealevel;temperature;humidity
40954;BME280;26686;50.130;8.710;2023-07-28T00:03:03;99299.34;;;18.28;100.00
40954;BME280;26686;50.130;8.710;2023-07-28T00:08:04;99296.25;;;18.31;100.00
40954;BME280;26686;50.130;8.710;2023-07-28T00:13:06;99304.53;;;18.30;100.00
40954;BME280;26686;50.130;8.710;2023-07-28T00:18:07;99301.19;;;18.28;100.00
40954;BME280;26686;50.130;8.710;2023-07-28T00:23:09;99291.44;;;18.27;100.00
40954;BME280;26686;50.130;8.710;2023-07-28T00:28:10;99308.19;;;18.22;100.00
40954;BME280;26686;50.130;8.710;2023-07-28T00:33:11;99297.03;;;18.25;100.00
40954;BME280;26686;50.130;8.710;2023-07-28T00:38:13;99284.16;;;18.20;100.00
40954;BME280;26686;50.130;8.710;2023-07-28T00:43:14;99276.94;;;18.21;100.00
40954;BME280;26686;50.130;8.710;2023-07-28T00:48:17;99282.31;;;18.21;100.00
40954;BME280;26686;50.130;8.710;2023-07-28T00:53:19;99282.31;;;18.21;100.00
40954;BME280;26686;50.130;8.710;2023-07-28T00:58:21;99281.44;;;18.14;100.00
40954;BME280;26686;50.130;8.710;2023-07-28T01:03:23;99271.28;;;18.16;100.00
40954;BME280;26686;50.130;8.710;2023-07-28T01:08:38;99274.38;;;18.13;100.00
40954;BME280;26686;50.130;8.710;2023-07-28T01:13:43;99269.81;;;18.13;100.00
40954;BME280;26686;50.130;8.710;2023-07-28T01:18:44;99257.19;;;18.14;100.00
40954;BME280;26686;50.130;8.710;2023-07-28T01:24:03;99269.25;;;18.18;100.00
40954;BME280;26686;50.130;8.710;2023-07-28T01:29:07;99266.97;;;18.22;100.00
40954;BME280;26686;50.130;8.710;2023-07-28T01:34:08;99270.91;;;18.19;100.00
40954;BME280;26686;50.130;8.710;2023-07-28T01:39:10;99257.81;;;18.16;100.00
40954;BME280;26686;50.130;8.710;2023-07-28T01:44:11;99258.84;;;18.15;100.00
40954;BME280;26686;50.130;8.710;2023-07-28T01:49:12;99260.72;;;18.14;100.00
40954;BME280;26686;50.130;8.710;2023-07-28T01:54:14;99264.22;;;18.15;100.00
40954;BME280;26686;50.130;8.710;2023-07-28T01:59:15;99259.31;;;18.18;100.00
40954;BME280;26686;50.130;8.710;2023-07-28T02:04:17;99250.53;;;18.10;100.00
40954;BME280;26686;50.130;8.710;2023-07-28T02:09:19;99270.69;;;18.20;100.00
40954;BME280;26686;50.130;8.710;2023-07-28T02:14:20;99266.78;;;18.23;100.00
40954;BME280;26686;50.130;8.710;2023-07-28T02:19:21;99273.78;;;18.17;100.00
40954;BME280;26686;50.130;8.710;2023-07-28T02:24:23;99265.72;;;18.17;100.00
40954;BME280;26686;50.130;8.710;2023-07-28T02:29:24;99264.44;;;18.13;100.00
40954;BME280;26686;50.130;8.710;2023-07-28T02:34:25;99265.28;;;18.14;100.00
40954;BME280;26686;50.130;8.710;2023-07-28T02:39:27;99257.41;;;18.12;100.00
40954;BME280;26686;50.130;8.710;2023-07-28T02:44:29;99255.28;;;18.08;100.00
40954;BME280;26686;50.130;8.710;2023-07-28T02:49:30;99268.56;;;18.09;100.00
40954;BME280;26686;50.130;8.710;2023-07-28T02:54:31;99272.69;;;18.12;100.00
40954;BME280;26686;50.130;8.710;2023-07-28T02:59:33;99267.31;;;18.12;100.00
40954;BME280;26686;50.130;8.710;2023-07-28T03:04:34;99278.53;;;18.15;100.00
40954;BME280;26686;50.130;8.710;2023-07-28T03:09:36;99279.81;;;18.19;100.00
40954;BME280;26686;50.130;8.710;2023-07-28T03:14:37;99277.31;;;18.18;100.00
40954;BME280;26686;50.130;8.710;2023-07-28T03:19:38;99281.03;;;18.17;100.00
40954;BME280;26686;50.130;8.710;2023-07-28T03:24:40;99271.09;;;18.17;100.00
40954;BME280;26686;50.130;8.710;2023-07-28T03:29:43;99271.94;;;18.18;100.00
40954;BME280;26686;50.130;8.710;2023-07-28T03:34:44;99266.69;;;18.10;100.00
40954;BME280;26686;50.130;8.710;2023-07-28T03:39:45;99271.88;;;18.11;100.00
40954;BME280;26686;50.130;8.710;2023-07-28T03:44:47;99265.03;;;18.09;100.00
40954;BME280;26686;50.130;8.710;2023-07-28T03:49:49;99270.59;;;18.07;100.00
40954;BME280;26686;50.130;8.710;2023-07-28T03:54:50;99262.72;;;18.06;100.00
40954;BME280;26686;50.130;8.710;2023-07-28T03:59:52;99258.63;;;18.10;100.00
40954;BME280;26686;50.130;8.710;2023-07-28T04:04:54;99264.63;;;18.12;100.00
40954;BME280;26686;50.130;8.710;2023-07-28T04:09:56;99277.69;;;18.15;100.00
40954;BME280;26686;50.130;8.710;2023-07-28T04:14:57;99283.47;;;18.12;100.00
40954;BME280;26686;50.130;8.710;2023-07-28T04:19:58;99292.22;;;18.14;100.00
40954;BME280;26686;50.130;8.710;2023-07-28T04:25:00;99296.53;;;18.15;100.00
40954;BME280;26686;50.130;8.710;2023-07-28T04:30:01;99309.00;;;18.16;100.00
40954;BME280;26686;50.130;8.710;2023-07-28T04:35:03;99301.91;;;18.08;100.00
40954;BME280;26686;50.130;8.710;2023-07-28T04:40:05;99289.50;;;18.14;100.00
40954;BME280;26686;50.130;8.710;2023-07-28T04:45:06;99292.22;;;18.14;100.00
40954;BME280;26686;50.130;8.710;2023-07-28T04:50:08;99309.66;;;18.18;100.00
40954;BME280;26686;50.130;8.710;2023-07-28T04:55:10;99309.66;;;18.18;100.00
40954;BME280;26686;50.130;8.710;2023-07-28T05:00:12;99321.66;;;18.22;100.00
40954;BME280;26686;50.130;8.710;2023-07-28T05:05:13;99321.47;;;18.24;100.00
40954;BME280;26686;50.130;8.710;2023-07-28T05:10:15;99339.94;;;18.27;100.00
40954;BME280;26686;50.130;8.710;2023-07-28T05:15:17;99338.09;;;18.27;100.00
40954;BME280;26686;50.130;8.710;2023-07-28T05:20:19;99343.09;;;18.30;100.00
40954;BME280;26686;50.130;8.710;2023-07-28T05:25:20;99334.34;;;18.28;100.00
40954;BME280;26686;50.130;8.710;2023-07-28T05:30:21;99346.22;;;18.34;100.00
40954;BME280;26686;50.130;8.710;2023-07-28T05:35:28;99351.00;;;18.38;100.00
40954;BME280;26686;50.130;8.710;2023-07-28T05:40:29;99348.72;;;18.35;100.00
40954;BME280;26686;50.130;8.710;2023-07-28T05:45:31;99354.34;;;18.41;100.00
40954;BME280;26686;50.130;8.710;2023-07-28T05:50:38;99355.59;;;18.45;100.00
40954;BME280;26686;50.130;8.710;2023-07-28T05:55:39;99353.56;;;18.47;100.00
40954;BME280;26686;50.130;8.710;2023-07-28T06:00:41;99354.44;;;18.54;100.00
40954;BME280;26686;50.130;8.710;2023-07-28T06:05:43;99353.00;;;18.58;100.00
40954;BME280;26686;50.130;8.710;2023-07-28T06:10:44;99350.56;;;18.63;100.00
40954;BME280;26686;50.130;8.710;2023-07-28T06:15:46;99360.94;;;18.66;100.00
40954;BME280;26686;50.130;8.710;2023-07-28T06:20:49;99367.22;;;18.73;100.00
40954;BME280;26686;50.130;8.710;2023-07-28T06:25:50;99351.47;;;18.77;100.00
40954;BME280;26686;50.130;8.710;2023-07-28T06:30:56;99369.31;;;18.78;100.00
40954;BME280;26686;50.130;8.710;2023-07-28T06:36:00;99368.06;;;18.81;100.00
40954;BME280;26686;50.130;8.710;2023-07-28T06:41:01;99372.63;;;18.80;100.00
40954;BME280;26686;50.130;8.710;2023-07-28T06:46:02;99369.31;;;18.78;100.00
40954;BME280;26686;50.130;8.710;2023-07-28T06:51:04;99373.66;;;18.79;100.00
40954;BME280;26686;50.130;8.710;2023-07-28T06:56:05;99382.59;;;18.80;100.00
40954;BME280;26686;50.130;8.710;2023-07-28T07:01:07;99390.13;;;18.91;100.00
40954;BME280;26686;50.130;8.710;2023-07-28T07:06:12;99388.72;;;18.95;100.00
40954;BME280;26686;50.130;8.710;2023-07-28T07:11:13;99396.41;;;18.98;100.00
40954;BME280;26686;50.130;8.710;2023-07-28T07:16:15;99397.91;;;19.07;100.00
40954;BME280;26686;50.130;8.710;2023-07-28T07:21:24;99404.16;;;19.15;100.00
40954;BME280;26686;50.130;8.710;2023-07-28T07:26:26;99406.47;;;19.18;100.00
40954;BME280;26686;50.130;8.710;2023-07-28T07:31:27;99407.75;;;19.22;100.00
40954;BME280;26686;50.130;8.710;2023-07-28T07:36:29;99406.06;;;19.21;100.00
40954;BME280;26686;50.130;8.710;2023-07-28T07:41:31;99416.03;;;19.27;100.00
40954;BME280;26686;50.130;8.710;2023-07-28T07:46:33;99427.31;;;19.37;100.00
40954;BME280;26686;50.130;8.710;2023-07-28T07:51:34;99429.00;;;19.45;100.00
40954;BME280;26686;50.130;8.710;2023-07-28T07:56:36;99424.03;;;19.49;100.00
40954;BME280;26686;50.130;8.710;2023-07-28T08:01:38;99427.81;;;19.61;100.00
40954;BME280;26686;50.130;8.710;2023-07-28T08:06:39;99424.09;;;19.75;100.00
40954;BME280;26686;50.130;8.710;2023-07-28T08:11:41;99443.28;;;19.87;100.00
40954;BME280;26686;50.130;8.710;2023-07-28T08:16:42;99435.00;;;19.95;100.00
40954;BME280;26686;50.130;8.710;2023-07-28T08:21:44;99432.94;;;20.04;100.00
40954;BME280;26686;50.130;8.710;2023-07-28T08:26:45;99448.75;;;20.27;100.00
40954;BME280;26686;50.130;8.710;2023-07-28T08:31:47;99440.47;;;20.36;100.00
40954;BME280;26686;50.130;8.710;2023-07-28T08:36:48;99442.94;;;20.51;100.00
40954;BME280;26686;50.130;8.710;2023-07-28T08:42:00;99442.13;;;20.77;100.00
40954;BME280;26686;50.130;8.710;2023-07-28T08:47:04;99442.94;;;20.97;97.12
40954;BME280;26686;50.130;8.710;2023-07-28T08:52:06;99458.94;;;21.12;95.43
40954;BME280;26686;50.130;8.710;2023-07-28T08:57:09;99471.22;;;21.08;93.83
40954;BME280;26686;50.130;8.710;2023-07-28T09:02:10;99467.03;;;21.06;92.15
40954;BME280;26686;50.130;8.710;2023-07-28T09:07:12;99457.88;;;21.00;91.71
40954;BME280;26686;50.130;8.710;2023-07-28T09:12:13;99461.84;;;21.11;92.04
40954;BME280;26686;50.130;8.710;2023-07-28T09:17:15;99459.53;;;21.14;91.10
40954;BME280;26686;50.130;8.710;2023-07-28T09:22:17;99477.41;;;21.29;90.54
40954;BME280;26686;50.130;8.710;2023-07-28T09:27:24;99471.53;;;21.39;87.95
40954;BME280;26686;50.130;8.710;2023-07-28T09:32:31;99468.63;;;21.40;87.67
40954;BME280;26686;50.130;8.710;2023-07-28T09:37:39;99474.03;;;21.53;89.12
40954;BME280;26686;50.130;8.710;2023-07-28T09:42:43;99471.09;;;21.48;86.76
40954;BME280;26686;50.130;8.710;2023-07-28T09:47:47;99478.19;;;21.56;86.68
40954;BME280;26686;50.130;8.710;2023-07-28T09:52:53;99468.16;;;21.63;85.99
40954;BME280;26686;50.130;8.710;2023-07-28T09:58:03;99467.91;;;21.71;84.05
40954;BME280;26686;50.130;8.710;2023-07-28T10:03:05;99456.03;;;21.73;83.85
40954;BME280;26686;50.130;8.710;2023-07-28T10:08:07;99468.06;;;21.83;82.07
40954;BME280;26686;50.130;8.710;2023-07-28T10:13:20;99462.91;;;22.07;81.71
40954;BME280;26686;50.130;8.710;2023-07-28T10:18:22;99461.94;;;22.33;80.08
40954;BME280;26686;50.130;8.710;2023-07-28T10:23:26;99468.06;;;22.47;79.79
40954;BME280;26686;50.130;8.710;2023-07-28T10:33:41;99484.84;;;22.88;75.88
40954;BME280;26686;50.130;8.710;2023-07-28T10:38:44;99472.59;;;23.04;76.46
40954;BME280;26686;50.130;8.710;2023-07-28T10:43:46;99473.41;;;23.04;75.49
40954;BME280;26686;50.130;8.710;2023-07-28T10:48:49;99481.75;;;23.09;75.13
40954;BME280;26686;50.130;8.710;2023-07-28T10:53:51;99476.91;;;23.11;75.35
40954;BME280;26686;50.130;8.710;2023-07-28T10:58:57;99484.03;;;23.06;73.95
40954;BME280;26686;50.130;8.710;2023-07-28T11:04:15;99478.38;;;23.07;74.01
40954;BME280;26686;50.130;8.710;2023-07-28T11:09:18;99486.72;;;22.87;74.29
40954;BME280;26686;50.130;8.710;2023-07-28T11:14:20;99491.44;;;22.73;75.43
40954;BME280;26686;50.130;8.710;2023-07-28T11:19:21;99484.41;;;22.66;75.99
40954;BME280;26686;50.130;8.710;2023-07-28T11:24:27;99493.34;;;22.73;76.90
40954;BME280;26686;50.130;8.710;2023-07-28T11:29:28;99486.06;;;22.92;76.09
40954;BME280;26686;50.130;8.710;2023-07-28T11:34:35;99486.13;;;22.85;76.48
40954;BME280;26686;50.130;8.710;2023-07-28T11:39:37;99492.72;;;22.71;76.44
40954;BME280;26686;50.130;8.710;2023-07-28T11:44:40;99487.41;;;22.57;78.90
40954;BME280;26686;50.130;8.710;2023-07-28T11:49:48;99493.91;;;22.56;81.65
40954;BME280;26686;50.130;8.710;2023-07-28T11:54:51;99488.41;;;22.63;81.50
40954;BME280;26686;50.130;8.710;2023-07-28T11:59:54;99484.03;;;22.62;79.32
40954;BME280;26686;50.130;8.710;2023-07-28T12:04:56;99489.28;;;22.57;80.83
40954;BME280;26686;50.130;8.710;2023-07-28T12:10:06;99489.75;;;22.47;81.42
40954;BME280;26686;50.130;8.710;2023-07-28T12:15:29;99491.09;;;22.38;81.71
40954;BME280;26686;50.130;8.710;2023-07-28T12:20:42;99494.88;;;22.37;82.14
40954;BME280;26686;50.130;8.710;2023-07-28T12:25:49;99504.25;;;22.28;82.95
40954;BME280;26686;50.130;8.710;2023-07-28T12:30:51;99496.88;;;22.10;92.03
40954;BME280;26686;50.130;8.710;2023-07-28T12:35:54;99499.63;;;22.03;94.13
40954;BME280;26686;50.130;8.710;2023-07-28T12:41:19;99502.13;;;22.04;94.14
40954;BME280;26686;50.130;8.710;2023-07-28T12:46:22;99504.81;;;22.04;93.61
40954;BME280;26686;50.130;8.710;2023-07-28T12:51:27;99503.75;;;22.12;95.12
40954;BME280;26686;50.130;8.710;2023-07-28T12:56:32;99507.56;;;22.36;93.67
40954;BME280;26686;50.130;8.710;2023-07-28T13:01:37;99502.47;;;22.53;87.40
40954;BME280;26686;50.130;8.710;2023-07-28T13:06:39;99517.91;;;22.78;86.66
40954;BME280;26686;50.130;8.710;2023-07-28T13:11:42;99516.19;;;22.84;84.85
40954;BME280;26686;50.130;8.710;2023-07-28T13:16:46;99518.03;;;22.90;83.32
40954;BME280;26686;50.130;8.710;2023-07-28T13:21:48;99506.19;;;23.03;85.32
40954;BME280;26686;50.130;8.710;2023-07-28T13:26:49;99516.81;;;23.04;83.53
40954;BME280;26686;50.130;8.710;2023-07-28T13:31:50;99520.50;;;22.91;82.67
40954;BME280;26686;50.130;8.710;2023-07-28T13:36:52;99510.81;;;22.77;83.98
40954;BME280;26686;50.130;8.710;2023-07-28T13:41:53;99513.19;;;22.67;84.05
40954;BME280;26686;50.130;8.710;2023-07-28T13:46:55;99519.94;;;22.57;88.78
40954;BME280;26686;50.130;8.710;2023-07-28T13:51:57;99505.34;;;22.27;93.47
40954;BME280;26686;50.130;8.710;2023-07-28T13:57:02;99514.97;;;22.16;96.66
40954;BME280;26686;50.130;8.710;2023-07-28T14:02:03;99503.28;;;22.22;99.07
40954;BME280;26686;50.130;8.710;2023-07-28T14:07:05;99501.78;;;22.33;98.80
40954;BME280;26686;50.130;8.710;2023-07-28T14:12:07;99507.75;;;22.41;99.80
40954;BME280;26686;50.130;8.710;2023-07-28T14:17:08;99522.03;;;22.23;98.85
40954;BME280;26686;50.130;8.710;2023-07-28T14:22:10;99513.28;;;22.21;99.75
40954;BME280;26686;50.130;8.710;2023-07-28T14:27:11;99508.78;;;22.09;97.99
40954;BME280;26686;50.130;8.710;2023-07-28T14:32:13;99522.16;;;21.97;98.72
40954;BME280;26686;50.130;8.710;2023-07-28T14:37:14;99506.16;;;21.88;98.91
40954;BME280;26686;50.130;8.710;2023-07-28T14:42:16;99509.34;;;21.79;97.68
40954;BME280;26686;50.130;8.710;2023-07-28T14:47:18;99506.84;;;21.77;100.00
40954;BME280;26686;50.130;8.710;2023-07-28T14:52:19;99513.28;;;21.76;100.00
40954;BME280;26686;50.130;8.710;2023-07-28T14:57:20;99519.41;;;21.65;100.00
40954;BME280;26686;50.130;8.710;2023-07-28T15:02:35;99524.81;;;21.58;100.00
40954;BME280;26686;50.130;8.710;2023-07-28T15:07:40;99529.00;;;21.54;100.00
40954;BME280;26686;50.130;8.710;2023-07-28T15:12:42;99517.75;;;21.50;100.00
40954;BME280;26686;50.130;8.710;2023-07-28T15:17:46;99510.25;;;21.52;100.00
40954;BME280;26686;50.130;8.710;2023-07-28T15:22:47;99513.97;;;21.65;100.00
40954;BME280;26686;50.130;8.710;2023-07-28T15:27:48;99493.91;;;21.79;100.00
40954;BME280;26686;50.130;8.710;2023-07-28T15:32:50;99505.94;;;21.90;100.00
40954;BME280;26686;50.130;8.710;2023-07-28T15:37:52;99505.91;;;21.97;100.00
40954;BME280;26686;50.130;8.710;2023-07-28T15:42:53;99503.44;;;21.88;100.00
40954;BME280;26686;50.130;8.710;2023-07-28T15:47:55;99506.94;;;21.96;100.00
40954;BME280;26686;50.130;8.710;2023-07-28T15:52:56;99513.81;;;21.98;100.00
40954;BME280;26686;50.130;8.710;2023-07-28T15:57:57;99504.25;;;21.96;100.00
40954;BME280;26686;50.130;8.710;2023-07-28T16:02:59;99509.22;;;21.99;100.00
40954;BME280;26686;50.130;8.710;2023-07-28T16:08:05;99503.44;;;21.95;100.00
40954;BME280;26686;50.130;8.710;2023-07-28T16:13:10;99502.56;;;21.95;100.00
40954;BME280;26686;50.130;8.710;2023-07-28T16:18:11;99502.56;;;21.95;100.00
40954;BME280;26686;50.130;8.710;2023-07-28T16:23:13;99503.44;;;21.88;100.00
40954;BME280;26686;50.130;8.710;2023-07-28T16:28:14;99494.72;;;21.86;100.00
40954;BME280;26686;50.130;8.710;2023-07-28T16:33:16;99494.31;;;21.83;100.00
40954;BME280;26686;50.130;8.710;2023-07-28T16:38:17;99496.81;;;21.84;100.00
40954;BME280;26686;50.130;8.710;2023-07-28T16:43:19;99493.47;;;21.82;100.00
40954;BME280;26686;50.130;8.710;2023-07-28T16:48:20;99500.34;;;21.85;100.00
40954;BME280;26686;50.130;8.710;2023-07-28T16:53:21;99498.88;;;21.82;100.00
40954;BME280;26686;50.130;8.710;2023-07-28T16:58:23;99497.44;;;21.80;97.96
40954;BME280;26686;50.130;8.710;2023-07-28T17:03:25;99494.16;;;21.71;97.91
40954;BME280;26686;50.130;8.710;2023-07-28T17:08:27;99489.19;;;21.68;97.35
40954;BME280;26686;50.130;8.710;2023-07-28T17:13:28;99503.75;;;21.67;98.17
40954;BME280;26686;50.130;8.710;2023-07-28T17:18:30;99493.34;;;21.64;97.92
40954;BME280;26686;50.130;8.710;2023-07-28T17:23:31;99500.44;;;21.58;98.38
40954;BME280;26686;50.130;8.710;2023-07-28T17:28:32;99503.19;;;21.51;98.20
40954;BME280;26686;50.130;8.710;2023-07-28T17:33:34;99511.91;;;21.53;98.38
40954;BME280;26686;50.130;8.710;2023-07-28T17:38:35;99507.31;;;21.54;98.01
40954;BME280;26686;50.130;8.710;2023-07-28T17:43:37;99506.94;;;21.50;98.15
40954;BME280;26686;50.130;8.710;2023-07-28T17:48:38;99495.91;;;21.45;97.00
40954;BME280;26686;50.130;8.710;2023-07-28T17:53:39;99507.34;;;21.47;96.98
40954;BME280;26686;50.130;8.710;2023-07-28T17:58:41;99508.19;;;21.54;98.33
40954;BME280;26686;50.130;8.710;2023-07-28T18:03:42;99509.44;;;21.45;97.94
40954;BME280;26686;50.130;8.710;2023-07-28T18:08:44;99520.25;;;21.39;98.36
40954;BME280;26686;50.130;8.710;2023-07-28T18:13:46;99520.69;;;21.35;99.03
40954;BME280;26686;50.130;8.710;2023-07-28T18:18:47;99518.59;;;21.37;99.33
40954;BME280;26686;50.130;8.710;2023-07-28T18:23:48;99533.19;;;21.36;99.67
40954;BME280;26686;50.130;8.710;2023-07-28T18:28:50;99539.88;;;21.21;100.00
40954;BME280;26686;50.130;8.710;2023-07-28T18:33:51;99533.22;;;21.16;100.00
40954;BME280;26686;50.130;8.710;2023-07-28T18:38:53;99536.53;;;21.12;100.00
40954;BME280;26686;50.130;8.710;2023-07-28T18:43:54;99540.72;;;21.08;100.00
40954;BME280;26686;50.130;8.710;2023-07-28T18:48:55;99543.84;;;20.98;100.00
40954;BME280;26686;50.130;8.710;2023-07-28T18:53:57;99539.06;;;21.00;100.00
40954;BME280;26686;50.130;8.710;2023-07-28T18:58:58;99560.69;;;21.00;100.00
40954;BME280;26686;50.130;8.710;2023-07-28T19:03:59;99551.13;;;20.91;100.00
40954;BME280;26686;50.130;8.710;2023-07-28T19:09:01;99547.38;;;20.78;100.00
40954;BME280;26686;50.130;8.710;2023-07-28T19:14:02;99566.50;;;20.83;100.00
40954;BME280;26686;50.130;8.710;2023-07-28T19:19:04;99558.41;;;20.83;100.00
40954;BME280;26686;50.130;8.710;2023-07-28T19:24:05;99565.28;;;20.79;100.00
40954;BME280;26686;50.130;8.710;2023-07-28T19:29:07;99559.47;;;20.82;100.00
40954;BME280;26686;50.130;8.710;2023-07-28T19:34:09;99568.41;;;20.83;100.00
40954;BME280;26686;50.130;8.710;2023-07-28T19:39:10;99571.50;;;20.87;100.00
40954;BME280;26686;50.130;8.710;2023-07-28T19:44:12;99584.19;;;20.73;100.00
40954;BME280;26686;50.130;8.710;2023-07-28T19:49:15;99576.09;;;20.66;100.00
40954;BME280;26686;50.130;8.710;2023-07-28T19:54:18;99582.69;;;20.63;100.00
40954;BME280;26686;50.130;8.710;2023-07-28T19:59:19;99588.75;;;20.65;100.00
40954;BME280;26686;50.130;8.710;2023-07-28T20:04:20;99600.59;;;20.64;100.00
40954;BME280;26686;50.130;8.710;2023-07-28T20:09:22;99611.44;;;20.71;100.00
40954;BME280;26686;50.130;8.710;2023-07-28T20:14:27;99604.97;;;20.65;100.00
40954;BME280;26686;50.130;8.710;2023-07-28T20:19:29;99612.03;;;20.60;100.00
40954;BME280;26686;50.130;8.710;2023-07-28T20:24:30;99600.78;;;20.49;100.00
40954;BME280;26686;50.130;8.710;2023-07-28T20:29:31;99604.09;;;20.45;100.00
40954;BME280;26686;50.130;8.710;2023-07-28T20:34:34;99599.72;;;20.44;100.00
40954;BME280;26686;50.130;8.710;2023-07-28T20:39:35;99608.25;;;20.47;100.00
40954;BME280;26686;50.130;8.710;2023-07-28T20:44:37;99605.53;;;20.47;100.00
40954;BME280;26686;50.130;8.710;2023-07-28T20:49:38;99604.09;;;20.45;100.00
40954;BME280;26686;50.130;8.710;2023-07-28T20:54:40;99606.78;;;20.45;100.00
40954;BME280;26686;50.130;8.710;2023-07-28T20:59:42;99609.06;;;20.41;100.00
40954;BME280;26686;50.130;8.710;2023-07-28T21:04:43;99611.13;;;20.39;100.00
40954;BME280;26686;50.130;8.710;2023-07-28T21:09:45;99616.75;;;20.44;100.00
40954;BME280;26686;50.130;8.710;2023-07-28T21:14:46;99608.44;;;20.39;100.00
40954;BME280;26686;50.130;8.710;2023-07-28T21:19:49;99616.13;;;20.42;100.00
40954;BME280;26686;50.130;8.710;2023-07-28T21:24:50;99610.06;;;20.34;100.00
40954;BME280;26686;50.130;8.710;2023-07-28T21:29:52;99610.06;;;20.27;100.00
40954;BME280;26686;50.130;8.710;2023-07-28T21:34:53;99612.38;;;20.30;100.00
40954;BME280;26686;50.130;8.710;2023-07-28T21:39:55;99622.75;;;20.33;100.00
40954;BME280;26686;50.130;8.710;2023-07-28T21:44:59;99620.47;;;20.30;100.00
40954;BME280;26686;50.130;8.710;2023-07-28T21:50:01;99615.47;;;20.27;100.00
40954;BME280;26686;50.130;8.710;2023-07-28T21:55:04;99604.66;;;20.27;100.00
40954;BME280;26686;50.130;8.710;2023-07-28T22:00:09;99600.50;;;20.24;100.00
40954;BME280;26686;50.130;8.710;2023-07-28T22:05:17;99610.06;;;20.27;100.00
40954;BME280;26686;50.130;8.710;2023-07-28T22:10:19;99618.19;;;20.27;100.00
40954;BME280;26686;50.130;8.710;2023-07-28T22:15:24;99608.78;;;20.23;100.00
40954;BME280;26686;50.130;8.710;2023-07-28T22:20:29;99603.81;;;20.20;100.00
40954;BME280;26686;50.130;8.710;2023-07-28T22:25:40;99605.63;;;20.12;100.00
40954;BME280;26686;50.130;8.710;2023-07-28T22:30:42;99612.06;;;20.11;100.00
40954;BME280;26686;50.130;8.710;2023-07-28T22:35:48;99606.44;;;20.06;100.00
40954;BME280;26686;50.130;8.710;2023-07-28T22:40:50;99600.41;;;20.04;100.00
40954;BME280;26686;50.130;8.710;2023-07-28T22:45:55;99591.03;;;20.00;100.00
40954;BME280;26686;50.130;8.710;2023-07-28T22:50:59;99583.75;;;19.94;100.00
40954;BME280;26686;50.130;8.710;2023-07-28T22:56:20;99577.09;;;19.96;100.00
40954;BME280;26686;50.130;8.710;2023-07-28T23:01:22;99583.94;;;19.92;100.00
40954;BME280;26686;50.130;8.710;2023-07-28T23:06:27;99584.56;;;19.88;100.00
40954;BME280;26686;50.130;8.710;2023-07-28T23:11:29;99584.56;;;19.88;100.00
40954;BME280;26686;50.130;8.710;2023-07-28T23:16:30;99580.38;;;19.85;100.00
40954;BME280;26686;50.130;8.710;2023-07-28T23:21:32;99573.31;;;19.84;100.00
40954;BME280;26686;50.130;8.710;2023-07-28T23:26:34;99567.09;;;19.84;100.00
40954;BME280;26686;50.130;8.710;2023-07-28T23:31:36;99557.50;;;19.81;100.00
40954;BME280;26686;50.130;8.710;2023-07-28T23:36:37;99583.28;;;19.84;100.00
40954;BME280;26686;50.130;8.710;2023-07-28T23:41:39;99576.22;;;19.83;100.00
40954;BME280;26686;50.130;8.710;2023-07-28T23:46:40;99579.09;;;19.81;100.00
40954;BME280;26686;50.130;8.710;2023-07-28T23:51:44;99578.28;;;19.81;100.00
40954;BME280;26686;50.130;8.710;2023-07-28T23:56:46;99583.88;;;19.79;100.00
